sensor_id;sensor_type;location;lat;lon;timestamp;P1;durP1;ratioP1;P2;durP2;ratioP2
51128;SDS011;46230;47.522;19.098;2022-07-04T00:01:10;3.95;;;3.20;;
51128;SDS011;46230;47.522;19.098;2022-07-04T00:03:10;5.25;;;2.92;;
51128;SDS011;46230;47.522;19.098;2022-07-04T00:05:11;6.68;;;3.25;;
51128;SDS011;46230;47.522;19.098;2022-07-04T00:07:12;4.40;;;3.20;;
51128;SDS011;46230;47.522;19.098;2022-07-04T00:09:12;3.63;;;3.15;;
51128;SDS011;46230;47.522;19.098;2022-07-04T00:11:12;3.20;;;2.90;;
51128;SDS011;46230;47.522;19.098;2022-07-04T00:13:13;4.63;;;3.10;;
51128;SDS011;46230;47.522;19.098;2022-07-04T00:15:13;8.07;;;3.03;;
51128;SDS011;46230;47.522;19.098;2022-07-04T00:17:14;3.95;;;2.90;;
51128;SDS011;46230;47.522;19.098;2022-07-04T00:19:14;5.75;;;3.40;;
51128;SDS011;46230;47.522;19.098;2022-07-04T00:21:15;5.18;;;2.90;;
51128;SDS011;46230;47.522;19.098;2022-07-04T00:23:15;4.28;;;3.45;;
51128;SDS011;46230;47.522;19.098;2022-07-04T00:25:15;5.28;;;3.10;;
51128;SDS011;46230;47.522;19.098;2022-07-04T00:27:16;5.82;;;3.25;;
51128;SDS011;46230;47.522;19.098;2022-07-04T00:29:16;8.32;;;2.90;;
51128;SDS011;46230;47.522;19.098;2022-07-04T00:31:17;4.03;;;3.22;;
51128;SDS011;46230;47.522;19.098;2022-07-04T00:33:17;5.50;;;2.90;;
51128;SDS011;46230;47.522;19.098;2022-07-04T00:35:18;8.98;;;2.90;;
51128;SDS011;46230;47.522;19.098;2022-07-04T00:37:18;4.82;;;2.90;;
51128;SDS011;46230;47.522;19.098;2022-07-04T00:39:19;3.72;;;2.90;;
51128;SDS011;46230;47.522;19.098;2022-07-04T00:41:19;4.65;;;3.20;;
51128;SDS011;46230;47.522;19.098;2022-07-04T00:43:20;5.32;;;2.90;;
51128;SDS011;46230;47.522;19.098;2022-07-04T00:45:21;4.50;;;3.23;;
51128;SDS011;46230;47.522;19.098;2022-07-04T00:47:22;3.45;;;2.88;;
51128;SDS011;46230;47.522;19.098;2022-07-04T00:49:22;4.50;;;3.17;;
51128;SDS011;46230;47.522;19.098;2022-07-04T00:51:23;3.72;;;3.30;;
51128;SDS011;46230;47.522;19.098;2022-07-04T00:53:23;5.15;;;3.20;;
51128;SDS011;46230;47.522;19.098;2022-07-04T00:55:24;6.53;;;3.08;;
51128;SDS011;46230;47.522;19.098;2022-07-04T00:57:24;4.78;;;3.00;;
51128;SDS011;46230;47.522;19.098;2022-07-04T00:59:25;4.35;;;3.15;;
51128;SDS011;46230;47.522;19.098;2022-07-04T01:01:25;3.55;;;3.25;;
51128;SDS011;46230;47.522;19.098;2022-07-04T01:03:26;7.25;;;3.00;;
51128;SDS011;46230;47.522;19.098;2022-07-04T01:05:26;5.40;;;3.00;;
51128;SDS011;46230;47.522;19.098;2022-07-04T01:07:27;4.47;;;3.35;;
51128;SDS011;46230;47.522;19.098;2022-07-04T01:09:27;6.53;;;2.92;;
51128;SDS011;46230;47.522;19.098;2022-07-04T01:11:28;4.50;;;3.08;;
51128;SDS011;46230;47.522;19.098;2022-07-04T01:13:28;6.32;;;3.20;;
51128;SDS011;46230;47.522;19.098;2022-07-04T01:15:28;5.95;;;3.25;;
51128;SDS011;46230;47.522;19.098;2022-07-04T01:17:29;5.03;;;2.83;;
51128;SDS011;46230;47.522;19.098;2022-07-04T01:19:29;5.97;;;2.92;;
51128;SDS011;46230;47.522;19.098;2022-07-04T01:21:30;5.72;;;3.28;;
51128;SDS011;46230;47.522;19.098;2022-07-04T01:23:32;5.28;;;3.72;;
51128;SDS011;46230;47.522;19.098;2022-07-04T01:25:37;3.67;;;3.13;;
51128;SDS011;46230;47.522;19.098;2022-07-04T01:27:37;6.20;;;3.70;;
51128;SDS011;46230;47.522;19.098;2022-07-04T01:29:37;3.75;;;3.30;;
51128;SDS011;46230;47.522;19.098;2022-07-04T01:31:38;4.63;;;3.25;;
51128;SDS011;46230;47.522;19.098;2022-07-04T01:33:38;5.25;;;3.20;;
51128;SDS011;46230;47.522;19.098;2022-07-04T01:35:39;3.53;;;3.00;;
51128;SDS011;46230;47.522;19.098;2022-07-04T01:37:39;3.40;;;3.10;;
51128;SDS011;46230;47.522;19.098;2022-07-04T01:39:40;6.22;;;3.45;;
51128;SDS011;46230;47.522;19.098;2022-07-04T01:41:40;4.80;;;3.50;;
51128;SDS011;46230;47.522;19.098;2022-07-04T01:43:40;3.58;;;2.90;;
51128;SDS011;46230;47.522;19.098;2022-07-04T01:45:41;6.25;;;3.35;;
51128;SDS011;46230;47.522;19.098;2022-07-04T01:47:41;3.33;;;2.95;;
51128;SDS011;46230;47.522;19.098;2022-07-04T01:49:42;5.93;;;3.40;;
51128;SDS011;46230;47.522;19.098;2022-07-04T01:51:43;5.22;;;3.22;;
51128;SDS011;46230;47.522;19.098;2022-07-04T01:53:47;5.32;;;3.65;;
51128;SDS011;46230;47.522;19.098;2022-07-04T01:55:47;6.72;;;3.80;;
51128;SDS011;46230;47.522;19.098;2022-07-04T01:57:48;5.03;;;3.35;;
51128;SDS011;46230;47.522;19.098;2022-07-04T01:59:48;6.82;;;3.78;;
51128;SDS011;46230;47.522;19.098;2022-07-04T02:01:49;3.63;;;3.00;;
51128;SDS011;46230;47.522;19.098;2022-07-04T02:03:49;5.80;;;3.83;;
51128;SDS011;46230;47.522;19.098;2022-07-04T02:05:49;7.88;;;3.58;;
51128;SDS011;46230;47.522;19.098;2022-07-04T02:07:50;5.45;;;3.70;;
51128;SDS011;46230;47.522;19.098;2022-07-04T02:09:51;4.57;;;3.75;;
51128;SDS011;46230;47.522;19.098;2022-07-04T02:11:51;6.90;;;3.67;;
51128;SDS011;46230;47.522;19.098;2022-07-04T02:13:51;7.43;;;3.83;;
51128;SDS011;46230;47.522;19.098;2022-07-04T02:15:52;4.30;;;3.90;;
51128;SDS011;46230;47.522;19.098;2022-07-04T02:17:52;5.80;;;3.90;;
51128;SDS011;46230;47.522;19.098;2022-07-04T02:19:53;6.68;;;3.75;;
51128;SDS011;46230;47.522;19.098;2022-07-04T02:21:53;4.80;;;3.65;;
51128;SDS011;46230;47.522;19.098;2022-07-04T02:23:53;6.40;;;3.50;;
51128;SDS011;46230;47.522;19.098;2022-07-04T02:25:54;7.60;;;3.80;;
51128;SDS011;46230;47.522;19.098;2022-07-04T02:27:54;3.70;;;3.30;;
51128;SDS011;46230;47.522;19.098;2022-07-04T02:29:55;4.47;;;3.28;;
51128;SDS011;46230;47.522;19.098;2022-07-04T02:31:55;4.30;;;3.55;;
51128;SDS011;46230;47.522;19.098;2022-07-04T02:33:56;4.75;;;3.60;;
51128;SDS011;46230;47.522;19.098;2022-07-04T02:35:56;6.10;;;3.72;;
51128;SDS011;46230;47.522;19.098;2022-07-04T02:37:57;3.63;;;3.30;;
51128;SDS011;46230;47.522;19.098;2022-07-04T02:39:57;3.90;;;3.42;;
51128;SDS011;46230;47.522;19.098;2022-07-04T02:41:58;4.38;;;3.70;;
51128;SDS011;46230;47.522;19.098;2022-07-04T02:43:58;6.60;;;3.67;;
51128;SDS011;46230;47.522;19.098;2022-07-04T02:45:59;4.20;;;3.42;;
51128;SDS011;46230;47.522;19.098;2022-07-04T02:47:59;5.47;;;3.78;;
51128;SDS011;46230;47.522;19.098;2022-07-04T02:49:59;5.22;;;3.38;;
51128;SDS011;46230;47.522;19.098;2022-07-04T02:52:00;5.22;;;3.53;;
51128;SDS011;46230;47.522;19.098;2022-07-04T02:54:00;6.10;;;3.80;;
51128;SDS011;46230;47.522;19.098;2022-07-04T02:56:01;6.85;;;3.70;;
51128;SDS011;46230;47.522;19.098;2022-07-04T02:58:01;4.30;;;3.75;;
51128;SDS011;46230;47.522;19.098;2022-07-04T03:00:02;4.35;;;3.90;;
51128;SDS011;46230;47.522;19.098;2022-07-04T03:02:02;5.38;;;3.70;;
51128;SDS011;46230;47.522;19.098;2022-07-04T03:04:03;4.72;;;3.83;;
51128;SDS011;46230;47.522;19.098;2022-07-04T03:06:03;5.22;;;3.90;;
51128;SDS011;46230;47.522;19.098;2022-07-04T03:08:04;6.53;;;3.97;;
51128;SDS011;46230;47.522;19.098;2022-07-04T03:10:05;7.45;;;3.95;;
51128;SDS011;46230;47.522;19.098;2022-07-04T03:12:06;5.20;;;3.70;;
51128;SDS011;46230;47.522;19.098;2022-07-04T03:14:07;4.85;;;4.10;;
51128;SDS011;46230;47.522;19.098;2022-07-04T03:16:08;8.82;;;3.63;;
51128;SDS011;46230;47.522;19.098;2022-07-04T03:18:08;5.60;;;3.83;;
51128;SDS011;46230;47.522;19.098;2022-07-04T03:20:09;7.22;;;3.75;;
51128;SDS011;46230;47.522;19.098;2022-07-04T03:22:09;6.75;;;3.97;;
51128;SDS011;46230;47.522;19.098;2022-07-04T03:24:10;5.28;;;3.80;;
51128;SDS011;46230;47.522;19.098;2022-07-04T03:26:10;4.25;;;3.85;;
51128;SDS011;46230;47.522;19.098;2022-07-04T03:28:11;4.97;;;3.53;;
51128;SDS011;46230;47.522;19.098;2022-07-04T03:30:11;6.35;;;3.90;;
51128;SDS011;46230;47.522;19.098;2022-07-04T03:32:12;7.00;;;3.97;;
51128;SDS011;46230;47.522;19.098;2022-07-04T03:34:12;5.32;;;3.50;;
51128;SDS011;46230;47.522;19.098;2022-07-04T03:36:13;8.07;;;4.10;;
51128;SDS011;46230;47.522;19.098;2022-07-04T03:38:13;4.45;;;4.05;;
51128;SDS011;46230;47.522;19.098;2022-07-04T03:40:14;5.68;;;3.70;;
51128;SDS011;46230;47.522;19.098;2022-07-04T03:42:14;4.78;;;3.92;;
51128;SDS011;46230;47.522;19.098;2022-07-04T03:44:17;5.70;;;3.83;;
51128;SDS011;46230;47.522;19.098;2022-07-04T03:46:17;5.32;;;4.40;;
51128;SDS011;46230;47.522;19.098;2022-07-04T03:48:18;5.05;;;4.20;;
51128;SDS011;46230;47.522;19.098;2022-07-04T03:50:18;4.93;;;4.10;;
51128;SDS011;46230;47.522;19.098;2022-07-04T03:52:19;5.10;;;4.13;;
51128;SDS011;46230;47.522;19.098;2022-07-04T03:54:19;8.68;;;4.10;;
51128;SDS011;46230;47.522;19.098;2022-07-04T03:56:19;7.22;;;4.43;;
51128;SDS011;46230;47.522;19.098;2022-07-04T03:58:20;7.18;;;4.32;;
51128;SDS011;46230;47.522;19.098;2022-07-04T04:00:20;8.60;;;4.75;;
51128;SDS011;46230;47.522;19.098;2022-07-04T04:02:21;6.82;;;4.40;;
51128;SDS011;46230;47.522;19.098;2022-07-04T04:04:21;11.30;;;4.38;;
51128;SDS011;46230;47.522;19.098;2022-07-04T04:06:21;5.00;;;4.43;;
51128;SDS011;46230;47.522;19.098;2022-07-04T04:08:22;5.30;;;4.28;;
51128;SDS011;46230;47.522;19.098;2022-07-04T04:10:23;5.25;;;4.18;;
51128;SDS011;46230;47.522;19.098;2022-07-04T04:12:24;7.60;;;4.57;;
51128;SDS011;46230;47.522;19.098;2022-07-04T04:14:24;4.60;;;4.13;;
51128;SDS011;46230;47.522;19.098;2022-07-04T04:16:25;5.22;;;4.57;;
51128;SDS011;46230;47.522;19.098;2022-07-04T04:18:25;7.32;;;4.82;;
51128;SDS011;46230;47.522;19.098;2022-07-04T04:20:26;5.85;;;4.35;;
51128;SDS011;46230;47.522;19.098;2022-07-04T04:22:29;6.15;;;4.72;;
51128;SDS011;46230;47.522;19.098;2022-07-04T04:24:30;8.30;;;4.70;;
51128;SDS011;46230;47.522;19.098;2022-07-04T04:26:30;5.78;;;4.50;;
51128;SDS011;46230;47.522;19.098;2022-07-04T04:28:31;8.52;;;4.70;;
51128;SDS011;46230;47.522;19.098;2022-07-04T04:30:31;7.15;;;4.28;;
51128;SDS011;46230;47.522;19.098;2022-07-04T04:32:31;6.35;;;4.75;;
51128;SDS011;46230;47.522;19.098;2022-07-04T04:34:32;5.45;;;4.30;;
51128;SDS011;46230;47.522;19.098;2022-07-04T04:36:32;7.15;;;4.50;;
51128;SDS011;46230;47.522;19.098;2022-07-04T04:38:33;8.25;;;4.63;;
51128;SDS011;46230;47.522;19.098;2022-07-04T04:40:33;7.72;;;4.15;;
51128;SDS011;46230;47.522;19.098;2022-07-04T04:42:33;7.82;;;5.05;;
51128;SDS011;46230;47.522;19.098;2022-07-04T04:44:34;5.93;;;4.93;;
51128;SDS011;46230;47.522;19.098;2022-07-04T04:46:34;5.78;;;4.60;;
51128;SDS011;46230;47.522;19.098;2022-07-04T04:48:35;6.10;;;4.35;;
51128;SDS011;46230;47.522;19.098;2022-07-04T04:50:35;7.55;;;4.53;;
51128;SDS011;46230;47.522;19.098;2022-07-04T04:52:36;7.28;;;4.50;;
51128;SDS011;46230;47.522;19.098;2022-07-04T04:54:36;5.88;;;3.85;;
51128;SDS011;46230;47.522;19.098;2022-07-04T04:56:37;5.60;;;4.05;;
51128;SDS011;46230;47.522;19.098;2022-07-04T04:58:37;5.85;;;3.50;;
51128;SDS011;46230;47.522;19.098;2022-07-04T05:00:38;7.50;;;3.63;;
51128;SDS011;46230;47.522;19.098;2022-07-04T05:02:38;7.45;;;3.70;;
51128;SDS011;46230;47.522;19.098;2022-07-04T05:04:38;5.93;;;3.60;;
51128;SDS011;46230;47.522;19.098;2022-07-04T05:06:39;8.32;;;3.88;;
51128;SDS011;46230;47.522;19.098;2022-07-04T05:08:39;5.22;;;3.50;;
51128;SDS011;46230;47.522;19.098;2022-07-04T05:10:40;5.93;;;3.08;;
51128;SDS011;46230;47.522;19.098;2022-07-04T05:12:41;5.30;;;3.47;;
51128;SDS011;46230;47.522;19.098;2022-07-04T05:14:42;5.00;;;3.70;;
51128;SDS011;46230;47.522;19.098;2022-07-04T05:16:42;8.05;;;3.28;;
51128;SDS011;46230;47.522;19.098;2022-07-04T05:18:43;5.38;;;3.65;;
51128;SDS011;46230;47.522;19.098;2022-07-04T05:20:43;6.32;;;3.45;;
51128;SDS011;46230;47.522;19.098;2022-07-04T05:22:44;4.25;;;3.20;;
51128;SDS011;46230;47.522;19.098;2022-07-04T05:24:44;4.28;;;3.28;;
51128;SDS011;46230;47.522;19.098;2022-07-04T05:26:45;3.97;;;3.13;;
51128;SDS011;46230;47.522;19.098;2022-07-04T05:28:45;4.18;;;3.25;;
51128;SDS011;46230;47.522;19.098;2022-07-04T05:30:45;4.97;;;3.38;;
51128;SDS011;46230;47.522;19.098;2022-07-04T05:32:46;3.95;;;3.40;;
51128;SDS011;46230;47.522;19.098;2022-07-04T05:34:46;5.15;;;3.42;;
51128;SDS011;46230;47.522;19.098;2022-07-04T05:36:47;5.82;;;3.40;;
51128;SDS011;46230;47.522;19.098;2022-07-04T05:38:47;5.15;;;2.85;;
51128;SDS011;46230;47.522;19.098;2022-07-04T05:40:48;5.07;;;3.42;;
51128;SDS011;46230;47.522;19.098;2022-07-04T05:42:48;6.32;;;2.90;;
51128;SDS011;46230;47.522;19.098;2022-07-04T05:44:48;5.75;;;3.15;;
51128;SDS011;46230;47.522;19.098;2022-07-04T05:46:49;4.75;;;2.83;;
51128;SDS011;46230;47.522;19.098;2022-07-04T05:48:49;4.28;;;3.05;;
51128;SDS011;46230;47.522;19.098;2022-07-04T05:50:50;5.50;;;2.90;;
51128;SDS011;46230;47.522;19.098;2022-07-04T05:52:50;4.80;;;3.10;;
51128;SDS011;46230;47.522;19.098;2022-07-04T05:54:51;5.47;;;3.17;;
51128;SDS011;46230;47.522;19.098;2022-07-04T05:56:51;4.72;;;3.35;;
51128;SDS011;46230;47.522;19.098;2022-07-04T05:58:51;9.20;;;3.28;;
51128;SDS011;46230;47.522;19.098;2022-07-04T06:00:52;7.03;;;3.20;;
51128;SDS011;46230;47.522;19.098;2022-07-04T06:02:52;5.00;;;2.97;;
51128;SDS011;46230;47.522;19.098;2022-07-04T06:04:56;3.30;;;3.00;;
51128;SDS011;46230;47.522;19.098;2022-07-04T06:06:57;4.63;;;3.03;;
51128;SDS011;46230;47.522;19.098;2022-07-04T06:08:57;5.00;;;3.22;;
51128;SDS011;46230;47.522;19.098;2022-07-04T06:10:58;5.45;;;2.90;;
51128;SDS011;46230;47.522;19.098;2022-07-04T06:13:00;4.90;;;3.00;;
51128;SDS011;46230;47.522;19.098;2022-07-04T06:15:00;4.32;;;3.08;;
51128;SDS011;46230;47.522;19.098;2022-07-04T06:17:01;4.13;;;3.08;;
51128;SDS011;46230;47.522;19.098;2022-07-04T06:19:02;8.77;;;2.95;;
51128;SDS011;46230;47.522;19.098;2022-07-04T06:21:02;6.45;;;3.35;;
51128;SDS011;46230;47.522;19.098;2022-07-04T06:23:03;3.22;;;2.53;;
51128;SDS011;46230;47.522;19.098;2022-07-04T06:25:03;4.88;;;2.67;;
51128;SDS011;46230;47.522;19.098;2022-07-04T06:27:04;6.03;;;3.15;;
51128;SDS011;46230;47.522;19.098;2022-07-04T06:29:04;5.28;;;2.50;;
51128;SDS011;46230;47.522;19.098;2022-07-04T06:31:05;39.70;;;8.10;;
51128;SDS011;46230;47.522;19.098;2022-07-04T06:33:05;5.22;;;2.90;;
51128;SDS011;46230;47.522;19.098;2022-07-04T06:35:06;6.18;;;2.47;;
51128;SDS011;46230;47.522;19.098;2022-07-04T06:37:09;2.97;;;2.67;;
51128;SDS011;46230;47.522;19.098;2022-07-04T06:39:09;3.58;;;2.00;;
51128;SDS011;46230;47.522;19.098;2022-07-04T06:41:10;3.03;;;2.53;;
51128;SDS011;46230;47.522;19.098;2022-07-04T06:43:10;4.53;;;2.53;;
51128;SDS011;46230;47.522;19.098;2022-07-04T06:45:10;5.10;;;2.45;;
51128;SDS011;46230;47.522;19.098;2022-07-04T06:47:11;3.05;;;2.15;;
51128;SDS011;46230;47.522;19.098;2022-07-04T06:49:12;2.78;;;2.03;;
51128;SDS011;46230;47.522;19.098;2022-07-04T06:51:12;3.75;;;2.22;;
51128;SDS011;46230;47.522;19.098;2022-07-04T06:53:12;2.35;;;2.00;;
51128;SDS011;46230;47.522;19.098;2022-07-04T06:55:13;4.90;;;1.98;;
51128;SDS011;46230;47.522;19.098;2022-07-04T06:57:13;4.43;;;2.20;;
51128;SDS011;46230;47.522;19.098;2022-07-04T06:59:14;10.30;;;1.98;;
51128;SDS011;46230;47.522;19.098;2022-07-04T07:01:15;7.78;;;1.90;;
51128;SDS011;46230;47.522;19.098;2022-07-04T07:03:15;4.75;;;2.08;;
51128;SDS011;46230;47.522;19.098;2022-07-04T07:05:16;3.50;;;1.70;;
51128;SDS011;46230;47.522;19.098;2022-07-04T07:07:16;5.03;;;1.80;;
51128;SDS011;46230;47.522;19.098;2022-07-04T07:09:16;2.70;;;2.20;;
51128;SDS011;46230;47.522;19.098;2022-07-04T07:11:17;5.97;;;1.95;;
51128;SDS011;46230;47.522;19.098;2022-07-04T07:13:17;1.70;;;1.35;;
51128;SDS011;46230;47.522;19.098;2022-07-04T07:15:18;4.43;;;1.33;;
51128;SDS011;46230;47.522;19.098;2022-07-04T07:17:18;2.22;;;1.60;;
51128;SDS011;46230;47.522;19.098;2022-07-04T07:19:18;1.63;;;1.30;;
51128;SDS011;46230;47.522;19.098;2022-07-04T07:21:19;1.30;;;1.20;;
51128;SDS011;46230;47.522;19.098;2022-07-04T07:23:19;1.45;;;1.35;;
51128;SDS011;46230;47.522;19.098;2022-07-04T07:25:20;2.13;;;1.50;;
51128;SDS011;46230;47.522;19.098;2022-07-04T07:27:20;2.85;;;1.30;;
51128;SDS011;46230;47.522;19.098;2022-07-04T07:29:20;1.45;;;1.17;;
51128;SDS011;46230;47.522;19.098;2022-07-04T07:31:21;3.88;;;1.25;;
51128;SDS011;46230;47.522;19.098;2022-07-04T07:33:22;1.50;;;1.20;;
51128;SDS011;46230;47.522;19.098;2022-07-04T07:35:22;2.10;;;1.20;;
51128;SDS011;46230;47.522;19.098;2022-07-04T07:37:23;3.45;;;1.50;;
51128;SDS011;46230;47.522;19.098;2022-07-04T07:39:23;1.20;;;1.10;;
51128;SDS011;46230;47.522;19.098;2022-07-04T07:41:23;4.57;;;1.13;;
51128;SDS011;46230;47.522;19.098;2022-07-04T07:43:24;2.05;;;1.40;;
51128;SDS011;46230;47.522;19.098;2022-07-04T07:45:24;3.03;;;1.10;;
51128;SDS011;46230;47.522;19.098;2022-07-04T07:47:25;1.83;;;1.50;;
51128;SDS011;46230;47.522;19.098;2022-07-04T07:49:25;3.13;;;1.30;;
51128;SDS011;46230;47.522;19.098;2022-07-04T07:51:26;2.05;;;1.30;;
51128;SDS011;46230;47.522;19.098;2022-07-04T07:53:26;1.75;;;1.30;;
51128;SDS011;46230;47.522;19.098;2022-07-04T07:55:26;7.00;;;1.42;;
51128;SDS011;46230;47.522;19.098;2022-07-04T07:57:27;1.92;;;1.33;;
51128;SDS011;46230;47.522;19.098;2022-07-04T07:59:28;4.32;;;1.20;;
51128;SDS011;46230;47.522;19.098;2022-07-04T08:01:28;1.40;;;1.20;;
51128;SDS011;46230;47.522;19.098;2022-07-04T08:03:28;4.40;;;1.20;;
51128;SDS011;46230;47.522;19.098;2022-07-04T08:05:29;1.52;;;1.20;;
51128;SDS011;46230;47.522;19.098;2022-07-04T08:07:29;1.77;;;1.25;;
51128;SDS011;46230;47.522;19.098;2022-07-04T08:09:30;2.90;;;1.20;;
51128;SDS011;46230;47.522;19.098;2022-07-04T08:11:31;3.17;;;1.05;;
51128;SDS011;46230;47.522;19.098;2022-07-04T08:13:31;2.58;;;1.20;;
51128;SDS011;46230;47.522;19.098;2022-07-04T08:15:32;1.20;;;1.10;;
51128;SDS011;46230;47.522;19.098;2022-07-04T08:17:33;2.40;;;1.60;;
51128;SDS011;46230;47.522;19.098;2022-07-04T08:19:33;2.10;;;1.50;;
51128;SDS011;46230;47.522;19.098;2022-07-04T08:21:34;1.30;;;1.10;;
51128;SDS011;46230;47.522;19.098;2022-07-04T08:23:34;3.00;;;1.40;;
51128;SDS011;46230;47.522;19.098;2022-07-04T08:25:35;1.33;;;1.23;;
51128;SDS011;46230;47.522;19.098;2022-07-04T08:27:38;1.42;;;0.93;;
51128;SDS011;46230;47.522;19.098;2022-07-04T08:29:38;1.27;;;1.10;;
51128;SDS011;46230;47.522;19.098;2022-07-04T08:31:39;1.30;;;1.20;;
51128;SDS011;46230;47.522;19.098;2022-07-04T08:33:39;1.20;;;1.10;;
51128;SDS011;46230;47.522;19.098;2022-07-04T08:35:39;1.42;;;1.30;;
51128;SDS011;46230;47.522;19.098;2022-07-04T08:37:40;2.08;;;1.20;;
51128;SDS011;46230;47.522;19.098;2022-07-04T08:39:40;1.40;;;1.00;;
51128;SDS011;46230;47.522;19.098;2022-07-04T08:41:41;3.50;;;1.15;;
51128;SDS011;46230;47.522;19.098;2022-07-04T08:43:41;2.78;;;1.20;;
51128;SDS011;46230;47.522;19.098;2022-07-04T08:45:42;1.10;;;1.00;;
51128;SDS011;46230;47.522;19.098;2022-07-04T08:47:47;1.20;;;1.10;;
51128;SDS011;46230;47.522;19.098;2022-07-04T08:49:57;1.50;;;1.10;;
51128;SDS011;46230;47.522;19.098;2022-07-04T08:51:59;1.70;;;1.10;;
51128;SDS011;46230;47.522;19.098;2022-07-04T08:54:06;1.63;;;0.95;;
51128;SDS011;46230;47.522;19.098;2022-07-04T08:56:07;1.75;;;1.27;;
51128;SDS011;46230;47.522;19.098;2022-07-04T08:58:08;1.15;;;1.05;;
51128;SDS011;46230;47.522;19.098;2022-07-04T09:00:09;1.88;;;1.40;;
51128;SDS011;46230;47.522;19.098;2022-07-04T09:02:09;1.50;;;1.13;;
51128;SDS011;46230;47.522;19.098;2022-07-04T09:04:10;2.15;;;0.98;;
51128;SDS011;46230;47.522;19.098;2022-07-04T09:06:11;1.25;;;1.15;;
51128;SDS011;46230;47.522;19.098;2022-07-04T09:08:12;1.33;;;1.17;;
51128;SDS011;46230;47.522;19.098;2022-07-04T09:10:12;2.00;;;1.10;;
51128;SDS011;46230;47.522;19.098;2022-07-04T09:12:13;1.70;;;1.20;;
51128;SDS011;46230;47.522;19.098;2022-07-04T09:14:14;3.13;;;1.27;;
51128;SDS011;46230;47.522;19.098;2022-07-04T09:16:14;2.85;;;1.30;;
51128;SDS011;46230;47.522;19.098;2022-07-04T09:18:27;1.20;;;1.10;;
51128;SDS011;46230;47.522;19.098;2022-07-04T09:20:30;2.05;;;1.17;;
51128;SDS011;46230;47.522;19.098;2022-07-04T09:22:32;1.92;;;1.27;;
51128;SDS011;46230;47.522;19.098;2022-07-04T09:24:48;1.35;;;1.20;;
51128;SDS011;46230;47.522;19.098;2022-07-04T09:26:50;1.67;;;1.20;;
51128;SDS011;46230;47.522;19.098;2022-07-04T09:28:54;1.40;;;1.17;;
51128;SDS011;46230;47.522;19.098;2022-07-04T09:30:55;2.03;;;1.20;;
51128;SDS011;46230;47.522;19.098;2022-07-04T09:32:57;3.80;;;1.27;;
51128;SDS011;46230;47.522;19.098;2022-07-04T09:34:58;1.52;;;1.10;;
51128;SDS011;46230;47.522;19.098;2022-07-04T09:36:58;2.58;;;1.10;;
51128;SDS011;46230;47.522;19.098;2022-07-04T09:41:18;2.33;;;1.35;;
51128;SDS011;46230;47.522;19.098;2022-07-04T09:43:18;3.35;;;1.50;;
51128;SDS011;46230;47.522;19.098;2022-07-04T09:45:19;2.97;;;1.40;;
51128;SDS011;46230;47.522;19.098;2022-07-04T09:47:27;2.25;;;1.30;;
51128;SDS011;46230;47.522;19.098;2022-07-04T09:49:28;1.30;;;1.17;;
51128;SDS011;46230;47.522;19.098;2022-07-04T09:51:35;1.52;;;1.27;;
51128;SDS011;46230;47.522;19.098;2022-07-04T09:53:35;1.40;;;1.30;;
51128;SDS011;46230;47.522;19.098;2022-07-04T09:55:37;3.42;;;1.33;;
51128;SDS011;46230;47.522;19.098;2022-07-04T09:57:43;1.45;;;1.20;;
51128;SDS011;46230;47.522;19.098;2022-07-04T09:59:44;3.33;;;1.45;;
51128;SDS011;46230;47.522;19.098;2022-07-04T10:01:45;4.32;;;1.50;;
51128;SDS011;46230;47.522;19.098;2022-07-04T10:03:46;3.25;;;1.60;;
51128;SDS011;46230;47.522;19.098;2022-07-04T10:08:06;3.42;;;1.20;;
51128;SDS011;46230;47.522;19.098;2022-07-04T10:10:19;2.15;;;0.95;;
51128;SDS011;46230;47.522;19.098;2022-07-04T10:12:27;1.63;;;1.52;;
51128;SDS011;46230;47.522;19.098;2022-07-04T10:14:28;4.30;;;1.40;;
51128;SDS011;46230;47.522;19.098;2022-07-04T10:16:30;1.98;;;1.20;;
51128;SDS011;46230;47.522;19.098;2022-07-04T10:18:31;5.53;;;1.27;;
51128;SDS011;46230;47.522;19.098;2022-07-04T10:20:31;2.45;;;1.83;;
51128;SDS011;46230;47.522;19.098;2022-07-04T10:22:31;2.63;;;1.45;;
51128;SDS011;46230;47.522;19.098;2022-07-04T10:24:32;5.78;;;1.33;;
51128;SDS011;46230;47.522;19.098;2022-07-04T10:26:33;2.03;;;1.50;;
51128;SDS011;46230;47.522;19.098;2022-07-04T10:28:33;3.58;;;1.65;;
51128;SDS011;46230;47.522;19.098;2022-07-04T10:30:36;1.85;;;1.58;;
51128;SDS011;46230;47.522;19.098;2022-07-04T10:32:37;4.85;;;1.20;;
51128;SDS011;46230;47.522;19.098;2022-07-04T10:34:39;4.65;;;1.23;;
51128;SDS011;46230;47.522;19.098;2022-07-04T10:36:42;4.10;;;1.17;;
51128;SDS011;46230;47.522;19.098;2022-07-04T10:38:52;3.00;;;1.27;;
51128;SDS011;46230;47.522;19.098;2022-07-04T10:41:03;1.50;;;1.40;;
51128;SDS011;46230;47.522;19.098;2022-07-04T10:43:50;3.42;;;1.25;;
51128;SDS011;46230;47.522;19.098;2022-07-04T10:45:32;4.15;;;1.40;;
51128;SDS011;46230;47.522;19.098;2022-07-04T10:47:32;1.58;;;1.15;;
51128;SDS011;46230;47.522;19.098;2022-07-04T10:49:34;6.00;;;1.10;;
51128;SDS011;46230;47.522;19.098;2022-07-04T10:56:31;1.60;;;1.10;;
51128;SDS011;46230;47.522;19.098;2022-07-04T10:58:39;3.97;;;1.00;;
51128;SDS011;46230;47.522;19.098;2022-07-04T11:00:41;5.28;;;1.00;;
51128;SDS011;46230;47.522;19.098;2022-07-04T11:03:14;2.75;;;1.10;;
51128;SDS011;46230;47.522;19.098;2022-07-04T11:05:15;3.25;;;1.30;;
51128;SDS011;46230;47.522;19.098;2022-07-04T11:07:16;5.57;;;1.33;;
51128;SDS011;46230;47.522;19.098;2022-07-04T11:09:17;1.80;;;1.00;;
51128;SDS011;46230;47.522;19.098;2022-07-04T11:16:12;1.83;;;1.13;;
51128;SDS011;46230;47.522;19.098;2022-07-04T11:18:12;1.73;;;1.10;;
51128;SDS011;46230;47.522;19.098;2022-07-04T11:20:13;1.88;;;1.30;;
51128;SDS011;46230;47.522;19.098;2022-07-04T11:22:21;2.90;;;1.20;;
51128;SDS011;46230;47.522;19.098;2022-07-04T11:24:22;3.88;;;0.88;;
51128;SDS011;46230;47.522;19.098;2022-07-04T11:26:24;3.90;;;1.00;;
51128;SDS011;46230;47.522;19.098;2022-07-04T11:28:25;6.18;;;1.13;;
51128;SDS011;46230;47.522;19.098;2022-07-04T11:30:27;1.23;;;1.13;;
51128;SDS011;46230;47.522;19.098;2022-07-04T11:32:31;1.75;;;0.95;;
51128;SDS011;46230;47.522;19.098;2022-07-04T11:34:33;1.85;;;1.05;;
51128;SDS011;46230;47.522;19.098;2022-07-04T11:36:33;0.90;;;0.90;;
51128;SDS011;46230;47.522;19.098;2022-07-04T11:38:47;1.08;;;0.90;;
51128;SDS011;46230;47.522;19.098;2022-07-04T11:40:54;1.05;;;0.90;;
51128;SDS011;46230;47.522;19.098;2022-07-04T11:43:04;2.70;;;0.80;;
51128;SDS011;46230;47.522;19.098;2022-07-04T11:45:06;1.40;;;1.00;;
51128;SDS011;46230;47.522;19.098;2022-07-04T11:49:11;1.02;;;0.82;;
51128;SDS011;46230;47.522;19.098;2022-07-04T11:51:15;2.85;;;0.73;;
51128;SDS011;46230;47.522;19.098;2022-07-04T11:53:17;1.42;;;0.80;;
51128;SDS011;46230;47.522;19.098;2022-07-04T11:55:18;5.40;;;0.80;;
51128;SDS011;46230;47.522;19.098;2022-07-04T11:57:19;1.33;;;1.00;;
51128;SDS011;46230;47.522;19.098;2022-07-04T11:59:21;3.92;;;1.35;;
51128;SDS011;46230;47.522;19.098;2022-07-04T12:01:28;2.58;;;1.17;;
51128;SDS011;46230;47.522;19.098;2022-07-04T12:03:28;1.95;;;1.05;;
51128;SDS011;46230;47.522;19.098;2022-07-04T12:05:28;1.95;;;0.80;;
51128;SDS011;46230;47.522;19.098;2022-07-04T12:07:30;4.53;;;1.40;;
51128;SDS011;46230;47.522;19.098;2022-07-04T12:11:50;3.28;;;1.00;;
51128;SDS011;46230;47.522;19.098;2022-07-04T12:14:05;1.67;;;1.00;;
51128;SDS011;46230;47.522;19.098;2022-07-04T12:16:12;3.13;;;1.00;;
51128;SDS011;46230;47.522;19.098;2022-07-04T12:18:26;1.20;;;1.10;;